sensor_id;sensor_type;location;lat;lon;timestamp;pressure;altitude;pressure_sealevel;temperature;humidity
19672;BME280;9983;51.114;13.788;2023-09-30T00:02:14;99778.47;;;22.27;89.19
19672;BME280;9983;51.114;13.788;2023-09-30T00:07:14;99775.78;;;22.15;90.23
19672;BME280;9983;51.114;13.788;2023-09-30T00:12:15;99778.06;;;22.07;91.62
19672;BME280;9983;51.114;13.788;2023-09-30T00:17:15;99788.53;;;21.86;93.62
19672;BME280;9983;51.114;13.788;2023-09-30T00:22:15;99794.63;;;21.53;97.70
19672;BME280;9983;51.114;13.788;2023-09-30T00:27:16;99801.28;;;21.57;99.29
19672;BME280;9983;51.114;13.788;2023-09-30T00:32:16;99799.97;;;21.37;100.00
19672;BME280;9983;51.114;13.788;2023-09-30T00:37:16;99806.38;;;21.31;100.00
19672;BME280;9983;51.114;13.788;2023-09-30T00:42:17;99815.63;;;21.30;100.00
19672;BME280;9983;51.114;13.788;2023-09-30T00:47:18;99818.25;;;21.25;100.00
19672;BME280;9983;51.114;13.788;2023-09-30T00:52:20;99818.25;;;21.25;100.00
19672;BME280;9983;51.114;13.788;2023-09-30T00:57:21;99828.91;;;21.38;100.00
19672;BME280;9983;51.114;13.788;2023-09-30T01:02:22;99833.00;;;20.64;100.00
19672;BME280;9983;51.114;13.788;2023-09-30T01:07:23;99834.00;;;20.81;100.00
19672;BME280;9983;51.114;13.788;2023-09-30T01:12:23;99834.56;;;20.71;100.00
19672;BME280;9983;51.114;13.788;2023-09-30T01:17:23;99846.03;;;20.25;100.00
19672;BME280;9983;51.114;13.788;2023-09-30T01:22:24;99854.22;;;19.70;100.00
19672;BME280;9983;51.114;13.788;2023-09-30T01:27:24;99869.00;;;19.56;100.00
19672;BME280;9983;51.114;13.788;2023-09-30T01:32:25;99881.56;;;19.26;100.00
19672;BME280;9983;51.114;13.788;2023-09-30T01:37:27;99881.91;;;19.36;100.00
19672;BME280;9983;51.114;13.788;2023-09-30T01:42:28;99884.81;;;19.10;100.00
19672;BME280;9983;51.114;13.788;2023-09-30T01:47:28;99897.16;;;19.37;100.00
19672;BME280;9983;51.114;13.788;2023-09-30T01:52:28;99910.84;;;19.55;100.00
19672;BME280;9983;51.114;13.788;2023-09-30T01:57:29;99906.03;;;19.26;100.00
19672;BME280;9983;51.114;13.788;2023-09-30T02:02:29;99911.81;;;19.36;100.00
19672;BME280;9983;51.114;13.788;2023-09-30T02:07:29;99919.63;;;19.57;100.00
19672;BME280;9983;51.114;13.788;2023-09-30T02:12:30;99919.69;;;19.44;100.00
19672;BME280;9983;51.114;13.788;2023-09-30T02:17:30;99922.47;;;19.38;100.00
19672;BME280;9983;51.114;13.788;2023-09-30T02:22:31;99930.22;;;18.71;100.00
19672;BME280;9983;51.114;13.788;2023-09-30T02:27:31;99936.09;;;18.62;100.00
19672;BME280;9983;51.114;13.788;2023-09-30T02:32:31;99950.94;;;19.04;100.00
19672;BME280;9983;51.114;13.788;2023-09-30T02:37:33;99946.88;;;18.75;100.00
19672;BME280;9983;51.114;13.788;2023-09-30T02:42:39;99963.53;;;18.91;100.00
19672;BME280;9983;51.114;13.788;2023-09-30T02:47:40;99977.59;;;18.75;100.00
19672;BME280;9983;51.114;13.788;2023-09-30T02:52:40;99973.66;;;18.71;100.00
19672;BME280;9983;51.114;13.788;2023-09-30T02:57:40;99985.63;;;19.02;100.00
19672;BME280;9983;51.114;13.788;2023-09-30T03:02:41;99994.16;;;18.67;100.00
19672;BME280;9983;51.114;13.788;2023-09-30T03:07:41;100003.78;;;18.63;100.00
19672;BME280;9983;51.114;13.788;2023-09-30T03:12:41;100010.97;;;18.11;100.00
19672;BME280;9983;51.114;13.788;2023-09-30T03:17:42;100018.06;;;18.06;100.00
19672;BME280;9983;51.114;13.788;2023-09-30T03:22:44;100023.06;;;18.29;95.82
19672;BME280;9983;51.114;13.788;2023-09-30T03:27:47;100031.41;;;18.01;95.15
19672;BME280;9983;51.114;13.788;2023-09-30T03:32:48;100050.63;;;17.79;95.36
19672;BME280;9983;51.114;13.788;2023-09-30T03:37:48;100050.63;;;17.73;96.63
19672;BME280;9983;51.114;13.788;2023-09-30T03:42:48;100070.97;;;17.49;98.32
19672;BME280;9983;51.114;13.788;2023-09-30T03:47:51;100075.25;;;18.04;94.60
19672;BME280;9983;51.114;13.788;2023-09-30T03:52:52;100091.13;;;17.94;95.14
19672;BME280;9983;51.114;13.788;2023-09-30T03:57:52;100089.00;;;17.70;95.61
19672;BME280;9983;51.114;13.788;2023-09-30T04:02:52;100104.00;;;17.66;95.90
19672;BME280;9983;51.114;13.788;2023-09-30T04:07:58;100114.44;;;17.69;95.82
19672;BME280;9983;51.114;13.788;2023-09-30T04:12:59;100112.75;;;17.68;95.67
19672;BME280;9983;51.114;13.788;2023-09-30T04:17:59;100117.69;;;17.44;96.56
19672;BME280;9983;51.114;13.788;2023-09-30T04:23:00;100113.59;;;17.62;95.82
19672;BME280;9983;51.114;13.788;2023-09-30T04:28:02;100128.59;;;17.10;100.00
19672;BME280;9983;51.114;13.788;2023-09-30T04:33:03;100144.19;;;17.08;100.00
19672;BME280;9983;51.114;13.788;2023-09-30T04:38:08;100146.63;;;16.90;100.00
19672;BME280;9983;51.114;13.788;2023-09-30T04:43:08;100153.31;;;16.94;100.00
19672;BME280;9983;51.114;13.788;2023-09-30T04:48:08;100166.63;;;16.89;100.00
19672;BME280;9983;51.114;13.788;2023-09-30T04:53:08;100163.50;;;16.92;100.00
19672;BME280;9983;51.114;13.788;2023-09-30T04:58:09;100177.03;;;16.92;100.00
19672;BME280;9983;51.114;13.788;2023-09-30T05:03:09;100195.38;;;16.90;100.00
19672;BME280;9983;51.114;13.788;2023-09-30T05:08:09;100198.31;;;17.29;100.00
19672;BME280;9983;51.114;13.788;2023-09-30T05:13:11;100196.81;;;17.20;100.00
19672;BME280;9983;51.114;13.788;2023-09-30T05:18:12;100187.78;;;17.48;99.64
19672;BME280;9983;51.114;13.788;2023-09-30T05:23:12;100192.31;;;17.40;100.00
19672;BME280;9983;51.114;13.788;2023-09-30T05:28:13;100191.44;;;17.33;100.00
19672;BME280;9983;51.114;13.788;2023-09-30T05:33:13;100197.28;;;17.30;100.00
19672;BME280;9983;51.114;13.788;2023-09-30T05:38:14;100185.81;;;16.94;100.00
19672;BME280;9983;51.114;13.788;2023-09-30T05:43:14;100188.63;;;17.07;100.00
19672;BME280;9983;51.114;13.788;2023-09-30T05:48:15;100191.38;;;17.20;100.00
19672;BME280;9983;51.114;13.788;2023-09-30T05:53:16;100195.50;;;17.16;100.00
19672;BME280;9983;51.114;13.788;2023-09-30T05:58:16;100198.16;;;17.03;100.00
19672;BME280;9983;51.114;13.788;2023-09-30T06:03:17;100197.31;;;16.75;100.00
19672;BME280;9983;51.114;13.788;2023-09-30T06:08:17;100201.56;;;16.84;100.00
19672;BME280;9983;51.114;13.788;2023-09-30T06:13:17;100200.88;;;17.03;100.00
19672;BME280;9983;51.114;13.788;2023-09-30T06:18:17;100222.84;;;16.87;100.00
19672;BME280;9983;51.114;13.788;2023-09-30T06:23:19;100219.91;;;16.82;100.00
19672;BME280;9983;51.114;13.788;2023-09-30T06:28:19;100239.88;;;16.59;100.00
19672;BME280;9983;51.114;13.788;2023-09-30T06:33:26;100257.16;;;16.58;100.00
19672;BME280;9983;51.114;13.788;2023-09-30T06:38:29;100264.72;;;16.63;100.00
19672;BME280;9983;51.114;13.788;2023-09-30T06:43:29;100276.69;;;16.96;100.00
19672;BME280;9983;51.114;13.788;2023-09-30T06:48:29;100286.72;;;17.02;100.00
19672;BME280;9983;51.114;13.788;2023-09-30T06:53:30;100292.66;;;16.63;100.00
19672;BME280;9983;51.114;13.788;2023-09-30T06:58:30;100295.22;;;16.72;100.00
19672;BME280;9983;51.114;13.788;2023-09-30T07:03:31;100288.69;;;16.45;100.00
19672;BME280;9983;51.114;13.788;2023-09-30T07:08:32;100292.09;;;16.53;100.00
19672;BME280;9983;51.114;13.788;2023-09-30T07:13:33;100299.34;;;16.67;100.00
19672;BME280;9983;51.114;13.788;2023-09-30T07:18:33;100308.22;;;16.83;100.00
19672;BME280;9983;51.114;13.788;2023-09-30T07:23:33;100311.94;;;17.03;100.00
19672;BME280;9983;51.114;13.788;2023-09-30T07:28:34;100314.19;;;16.99;100.00
19672;BME280;9983;51.114;13.788;2023-09-30T07:33:34;100315.72;;;17.36;100.00
19672;BME280;9983;51.114;13.788;2023-09-30T07:38:34;100319.97;;;17.45;100.00
19672;BME280;9983;51.114;13.788;2023-09-30T07:43:35;100300.31;;;17.65;100.00
19672;BME280;9983;51.114;13.788;2023-09-30T07:48:35;100289.44;;;18.19;98.86
19672;BME280;9983;51.114;13.788;2023-09-30T07:53:35;100302.25;;;18.38;96.61
19672;BME280;9983;51.114;13.788;2023-09-30T07:58:35;100321.59;;;18.15;96.01
19672;BME280;9983;51.114;13.788;2023-09-30T08:03:36;100316.84;;;17.83;92.99
19672;BME280;9983;51.114;13.788;2023-09-30T08:08:36;100320.34;;;18.25;91.79
19672;BME280;9983;51.114;13.788;2023-09-30T08:13:36;100318.34;;;17.86;91.83
19672;BME280;9983;51.114;13.788;2023-09-30T08:18:37;100317.81;;;18.10;88.28
19672;BME280;9983;51.114;13.788;2023-09-30T08:23:37;100334.50;;;18.07;91.58
19672;BME280;9983;51.114;13.788;2023-09-30T08:28:38;100336.25;;;18.28;88.43
19672;BME280;9983;51.114;13.788;2023-09-30T08:33:39;100340.06;;;18.40;88.71
19672;BME280;9983;51.114;13.788;2023-09-30T08:38:41;100335.66;;;18.45;87.11
19672;BME280;9983;51.114;13.788;2023-09-30T08:43:42;100323.31;;;18.36;85.10
19672;BME280;9983;51.114;13.788;2023-09-30T08:48:43;100335.13;;;18.63;82.48
19672;BME280;9983;51.114;13.788;2023-09-30T08:53:44;100348.03;;;18.54;82.03
19672;BME280;9983;51.114;13.788;2023-09-30T08:58:45;100346.81;;;18.57;79.67
19672;BME280;9983;51.114;13.788;2023-09-30T09:03:45;100348.50;;;18.71;78.18
19672;BME280;9983;51.114;13.788;2023-09-30T09:08:52;100363.47;;;18.54;80.09
19672;BME280;9983;51.114;13.788;2023-09-30T09:13:53;100350.22;;;19.12;78.34
19672;BME280;9983;51.114;13.788;2023-09-30T09:18:55;100349.78;;;19.08;75.66
19672;BME280;9983;51.114;13.788;2023-09-30T09:23:56;100355.22;;;19.02;76.38
19672;BME280;9983;51.114;13.788;2023-09-30T09:28:59;100359.00;;;19.14;74.88
19672;BME280;9983;51.114;13.788;2023-09-30T09:34:00;100375.28;;;18.74;74.43
19672;BME280;9983;51.114;13.788;2023-09-30T09:39:01;100371.53;;;18.82;74.75
19672;BME280;9983;51.114;13.788;2023-09-30T09:44:01;100354.16;;;18.76;74.23
19672;BME280;9983;51.114;13.788;2023-09-30T09:49:02;100358.13;;;18.80;74.47
19672;BME280;9983;51.114;13.788;2023-09-30T09:54:04;100370.72;;;19.08;73.58
19672;BME280;9983;51.114;13.788;2023-09-30T09:59:07;100365.66;;;18.78;73.68
19672;BME280;9983;51.114;13.788;2023-09-30T10:04:10;100348.53;;;19.24;72.60
19672;BME280;9983;51.114;13.788;2023-09-30T10:09:12;100357.75;;;19.16;72.81
19672;BME280;9983;51.114;13.788;2023-09-30T10:14:30;100356.63;;;19.90;69.08
19672;BME280;9983;51.114;13.788;2023-09-30T10:19:30;100365.25;;;19.74;65.90
19672;BME280;9983;51.114;13.788;2023-09-30T10:24:32;100367.34;;;19.19;68.34
19672;BME280;9983;51.114;13.788;2023-09-30T10:29:41;100358.56;;;19.17;67.31
19672;BME280;9983;51.114;13.788;2023-09-30T10:34:48;100353.91;;;19.90;66.65
19672;BME280;9983;51.114;13.788;2023-09-30T10:39:54;100358.41;;;20.09;62.79
19672;BME280;9983;51.114;13.788;2023-09-30T10:44:55;100365.59;;;19.97;60.11
19672;BME280;9983;51.114;13.788;2023-09-30T10:49:55;100367.53;;;20.79;56.39
19672;BME280;9983;51.114;13.788;2023-09-30T10:55:02;100366.00;;;21.14;56.32
19672;BME280;9983;51.114;13.788;2023-09-30T11:00:12;100363.28;;;21.64;52.98
19672;BME280;9983;51.114;13.788;2023-09-30T11:05:14;100350.94;;;21.37;51.09
19672;BME280;9983;51.114;13.788;2023-09-30T11:10:19;100366.22;;;21.13;51.61
19672;BME280;9983;51.114;13.788;2023-09-30T11:15:19;100353.13;;;20.72;54.31
19672;BME280;9983;51.114;13.788;2023-09-30T11:20:19;100357.72;;;22.14;50.16
19672;BME280;9983;51.114;13.788;2023-09-30T11:25:20;100345.16;;;23.37;46.62
19672;BME280;9983;51.114;13.788;2023-09-30T11:30:21;100345.38;;;23.01;47.14
19672;BME280;9983;51.114;13.788;2023-09-30T11:35:23;100345.91;;;22.80;46.95
19672;BME280;9983;51.114;13.788;2023-09-30T11:40:23;100349.50;;;22.32;48.60
19672;BME280;9983;51.114;13.788;2023-09-30T11:45:24;100346.59;;;22.27;49.48
19672;BME280;9983;51.114;13.788;2023-09-30T11:50:25;100350.94;;;21.37;50.95
19672;BME280;9983;51.114;13.788;2023-09-30T11:55:25;100351.00;;;21.55;50.15
19672;BME280;9983;51.114;13.788;2023-09-30T12:00:27;100341.91;;;21.11;49.83
19672;BME280;9983;51.114;13.788;2023-09-30T12:05:27;100335.59;;;21.17;49.54
19672;BME280;9983;51.114;13.788;2023-09-30T12:10:29;100331.84;;;21.12;50.13
19672;BME280;9983;51.114;13.788;2023-09-30T12:15:31;100334.75;;;20.92;50.44
19672;BME280;9983;51.114;13.788;2023-09-30T12:20:31;100314.84;;;20.85;49.70
19672;BME280;9983;51.114;13.788;2023-09-30T12:25:31;100318.78;;;20.64;50.26
19672;BME280;9983;51.114;13.788;2023-09-30T12:30:33;100312.66;;;21.00;50.26
19672;BME280;9983;51.114;13.788;2023-09-30T12:35:34;100315.34;;;21.32;49.52
19672;BME280;9983;51.114;13.788;2023-09-30T12:40:34;100309.13;;;21.25;50.80
19672;BME280;9983;51.114;13.788;2023-09-30T12:45:34;100302.44;;;21.20;50.99
19672;BME280;9983;51.114;13.788;2023-09-30T12:50:34;100296.75;;;20.97;50.91
19672;BME280;9983;51.114;13.788;2023-09-30T12:55:35;100288.22;;;21.12;45.36
19672;BME280;9983;51.114;13.788;2023-09-30T13:00:35;100293.94;;;20.79;45.68
19672;BME280;9983;51.114;13.788;2023-09-30T13:05:36;100295.63;;;20.80;46.85
19672;BME280;9983;51.114;13.788;2023-09-30T13:10:37;100289.75;;;20.76;45.61
19672;BME280;9983;51.114;13.788;2023-09-30T13:15:38;100279.13;;;21.43;45.52
19672;BME280;9983;51.114;13.788;2023-09-30T13:20:38;100281.84;;;21.61;45.54
19672;BME280;9983;51.114;13.788;2023-09-30T13:25:39;100283.03;;;21.04;45.18
19672;BME280;9983;51.114;13.788;2023-09-30T13:30:39;100287.75;;;21.76;45.41
19672;BME280;9983;51.114;13.788;2023-09-30T13:35:40;100276.09;;;21.51;46.21
19672;BME280;9983;51.114;13.788;2023-09-30T13:40:40;100281.09;;;21.54;44.32
19672;BME280;9983;51.114;13.788;2023-09-30T13:45:41;100270.31;;;20.98;47.77
19672;BME280;9983;51.114;13.788;2023-09-30T13:50:41;100273.53;;;21.56;46.90
19672;BME280;9983;51.114;13.788;2023-09-30T13:55:41;100277.75;;;21.52;44.51
19672;BME280;9983;51.114;13.788;2023-09-30T14:00:46;100271.69;;;21.32;46.14
19672;BME280;9983;51.114;13.788;2023-09-30T14:05:54;100272.75;;;22.63;44.67
19672;BME280;9983;51.114;13.788;2023-09-30T14:10:54;100255.88;;;22.25;43.36
19672;BME280;9983;51.114;13.788;2023-09-30T14:15:55;100248.41;;;22.74;42.05
19672;BME280;9983;51.114;13.788;2023-09-30T14:20:56;100260.81;;;23.23;42.34
19672;BME280;9983;51.114;13.788;2023-09-30T14:25:56;100251.19;;;23.95;39.41
19672;BME280;9983;51.114;13.788;2023-09-30T14:30:57;100260.34;;;24.57;37.50
19672;BME280;9983;51.114;13.788;2023-09-30T14:35:57;100258.38;;;25.03;35.82
19672;BME280;9983;51.114;13.788;2023-09-30T14:40:57;100257.97;;;26.64;35.07
19672;BME280;9983;51.114;13.788;2023-09-30T14:46:01;100241.03;;;27.51;32.56
19672;BME280;9983;51.114;13.788;2023-09-30T14:51:01;100249.50;;;27.86;32.34
19672;BME280;9983;51.114;13.788;2023-09-30T14:56:14;100240.78;;;27.10;31.99
19672;BME280;9983;51.114;13.788;2023-09-30T15:01:16;100254.09;;;27.29;31.92
19672;BME280;9983;51.114;13.788;2023-09-30T15:06:16;100254.22;;;27.02;32.71
19672;BME280;9983;51.114;13.788;2023-09-30T15:11:17;100255.00;;;27.39;32.44
19672;BME280;9983;51.114;13.788;2023-09-30T15:16:18;100246.03;;;26.53;33.81
19672;BME280;9983;51.114;13.788;2023-09-30T15:21:19;100244.22;;;25.28;35.48
19672;BME280;9983;51.114;13.788;2023-09-30T15:26:19;100241.91;;;24.86;36.82
19672;BME280;9983;51.114;13.788;2023-09-30T15:31:20;100244.38;;;24.09;38.48
19672;BME280;9983;51.114;13.788;2023-09-30T15:36:20;100249.25;;;23.44;40.64
19672;BME280;9983;51.114;13.788;2023-09-30T15:41:23;100247.88;;;23.93;39.57
19672;BME280;9983;51.114;13.788;2023-09-30T15:46:24;100249.06;;;22.99;40.15
19672;BME280;9983;51.114;13.788;2023-09-30T15:51:24;100240.84;;;22.99;40.39
19672;BME280;9983;51.114;13.788;2023-09-30T15:56:24;100235.94;;;22.36;41.65
19672;BME280;9983;51.114;13.788;2023-09-30T16:01:24;100244.53;;;22.51;43.25
19672;BME280;9983;51.114;13.788;2023-09-30T16:06:25;100242.91;;;21.72;53.63
19672;BME280;9983;51.114;13.788;2023-09-30T16:11:26;100261.09;;;21.78;51.22
19672;BME280;9983;51.114;13.788;2023-09-30T16:16:26;100261.69;;;21.80;48.25
19672;BME280;9983;51.114;13.788;2023-09-30T16:21:26;100256.56;;;20.86;59.52
19672;BME280;9983;51.114;13.788;2023-09-30T16:26:27;100258.63;;;20.34;60.55
19672;BME280;9983;51.114;13.788;2023-09-30T16:31:27;100264.47;;;20.38;60.46
19672;BME280;9983;51.114;13.788;2023-09-30T16:36:27;100264.91;;;20.28;57.72
19672;BME280;9983;51.114;13.788;2023-09-30T16:41:28;100259.94;;;20.19;58.21
19672;BME280;9983;51.114;13.788;2023-09-30T16:46:29;100269.91;;;19.29;66.08
19672;BME280;9983;51.114;13.788;2023-09-30T16:51:30;100258.66;;;18.66;71.73
19672;BME280;9983;51.114;13.788;2023-09-30T16:56:30;100265.75;;;18.87;70.17
19672;BME280;9983;51.114;13.788;2023-09-30T17:01:30;100275.66;;;18.07;72.07
19672;BME280;9983;51.114;13.788;2023-09-30T17:06:31;100274.69;;;17.39;78.22
19672;BME280;9983;51.114;13.788;2023-09-30T17:11:31;100270.69;;;17.70;76.37
19672;BME280;9983;51.114;13.788;2023-09-30T17:16:32;100274.09;;;17.51;76.56
19672;BME280;9983;51.114;13.788;2023-09-30T17:21:32;100271.34;;;17.10;80.32
19672;BME280;9983;51.114;13.788;2023-09-30T17:26:32;100279.78;;;17.21;79.18
19672;BME280;9983;51.114;13.788;2023-09-30T17:31:32;100273.56;;;16.72;82.39
19672;BME280;9983;51.114;13.788;2023-09-30T17:36:33;100292.59;;;16.21;87.30
19672;BME280;9983;51.114;13.788;2023-09-30T17:41:33;100301.59;;;16.07;89.66
19672;BME280;9983;51.114;13.788;2023-09-30T17:46:33;100296.00;;;15.93;90.55
19672;BME280;9983;51.114;13.788;2023-09-30T17:51:34;100299.56;;;15.50;94.33
19672;BME280;9983;51.114;13.788;2023-09-30T17:56:34;100298.72;;;15.35;96.39
19672;BME280;9983;51.114;13.788;2023-09-30T18:01:34;100304.22;;;15.12;98.52
19672;BME280;9983;51.114;13.788;2023-09-30T18:06:36;100302.34;;;15.12;99.07
19672;BME280;9983;51.114;13.788;2023-09-30T18:11:37;100305.91;;;15.28;97.19
19672;BME280;9983;51.114;13.788;2023-09-30T18:16:37;100315.13;;;14.81;100.00
19672;BME280;9983;51.114;13.788;2023-09-30T18:21:39;100310.09;;;14.78;100.00
19672;BME280;9983;51.114;13.788;2023-09-30T18:26:40;100311.53;;;14.66;100.00
19672;BME280;9983;51.114;13.788;2023-09-30T18:31:41;100324.19;;;14.42;100.00
19672;BME280;9983;51.114;13.788;2023-09-30T18:36:44;100324.31;;;14.18;100.00
19672;BME280;9983;51.114;13.788;2023-09-30T18:41:44;100330.84;;;13.93;100.00
19672;BME280;9983;51.114;13.788;2023-09-30T18:46:45;100326.50;;;13.84;100.00
19672;BME280;9983;51.114;13.788;2023-09-30T18:51:45;100323.19;;;13.65;100.00
19672;BME280;9983;51.114;13.788;2023-09-30T18:56:46;100325.59;;;13.60;100.00
19672;BME280;9983;51.114;13.788;2023-09-30T19:01:46;100323.38;;;14.03;100.00
19672;BME280;9983;51.114;13.788;2023-09-30T19:06:47;100327.69;;;13.81;100.00
19672;BME280;9983;51.114;13.788;2023-09-30T19:11:48;100331.03;;;13.44;100.00
19672;BME280;9983;51.114;13.788;2023-09-30T19:16:48;100327.38;;;13.29;100.00
19672;BME280;9983;51.114;13.788;2023-09-30T19:21:48;100324.31;;;13.08;100.00
19672;BME280;9983;51.114;13.788;2023-09-30T19:26:48;100322.31;;;12.93;100.00
19672;BME280;9983;51.114;13.788;2023-09-30T19:31:49;100312.22;;;13.20;100.00
19672;BME280;9983;51.114;13.788;2023-09-30T19:36:50;100312.22;;;13.04;100.00
19672;BME280;9983;51.114;13.788;2023-09-30T19:41:50;100307.19;;;12.92;100.00
19672;BME280;9983;51.114;13.788;2023-09-30T19:46:50;100297.09;;;12.38;100.00
19672;BME280;9983;51.114;13.788;2023-09-30T19:51:50;100302.34;;;12.72;100.00
19672;BME280;9983;51.114;13.788;2023-09-30T19:56:51;100312.56;;;13.01;100.00
19672;BME280;9983;51.114;13.788;2023-09-30T20:01:51;100298.09;;;12.85;100.00
19672;BME280;9983;51.114;13.788;2023-09-30T20:06:54;100315.59;;;13.22;100.00
19672;BME280;9983;51.114;13.788;2023-09-30T20:11:54;100316.28;;;12.83;100.00
19672;BME280;9983;51.114;13.788;2023-09-30T20:16:58;100322.47;;;12.35;100.00
19672;BME280;9983;51.114;13.788;2023-09-30T20:21:58;100317.44;;;12.48;100.00
19672;BME280;9983;51.114;13.788;2023-09-30T20:27:00;100320.94;;;12.33;100.00
19672;BME280;9983;51.114;13.788;2023-09-30T20:32:00;100321.22;;;12.05;100.00
19672;BME280;9983;51.114;13.788;2023-09-30T20:37:01;100326.59;;;12.05;100.00
19672;BME280;9983;51.114;13.788;2023-09-30T20:42:03;100326.34;;;11.83;100.00
19672;BME280;9983;51.114;13.788;2023-09-30T20:47:03;100311.56;;;11.45;100.00
19672;BME280;9983;51.114;13.788;2023-09-30T20:52:05;100324.88;;;11.88;100.00
19672;BME280;9983;51.114;13.788;2023-09-30T20:57:06;100307.47;;;12.16;100.00
19672;BME280;9983;51.114;13.788;2023-09-30T21:02:06;100312.00;;;11.74;100.00
19672;BME280;9983;51.114;13.788;2023-09-30T21:07:09;100311.94;;;11.58;100.00
19672;BME280;9983;51.114;13.788;2023-09-30T21:12:09;100306.72;;;11.90;100.00
19672;BME280;9983;51.114;13.788;2023-09-30T21:17:13;100310.50;;;11.71;100.00
19672;BME280;9983;51.114;13.788;2023-09-30T21:22:13;100311.63;;;11.61;100.00
19672;BME280;9983;51.114;13.788;2023-09-30T21:27:14;100309.22;;;11.50;100.00
19672;BME280;9983;51.114;13.788;2023-09-30T21:32:14;100317.22;;;11.41;100.00
19672;BME280;9983;51.114;13.788;2023-09-30T21:37:14;100313.84;;;11.39;100.00
19672;BME280;9983;51.114;13.788;2023-09-30T21:42:14;100316.09;;;11.18;100.00
19672;BME280;9983;51.114;13.788;2023-09-30T21:47:15;100314.31;;;11.01;100.00
19672;BME280;9983;51.114;13.788;2023-09-30T21:52:15;100304.81;;;10.89;100.00
19672;BME280;9983;51.114;13.788;2023-09-30T21:57:16;100310.94;;;10.99;100.00
19672;BME280;9983;51.114;13.788;2023-09-30T22:02:16;100311.44;;;10.77;100.00
19672;BME280;9983;51.114;13.788;2023-09-30T22:07:16;100313.75;;;11.23;100.00
19672;BME280;9983;51.114;13.788;2023-09-30T22:12:16;100306.06;;;10.77;100.00
19672;BME280;9983;51.114;13.788;2023-09-30T22:17:17;100310.28;;;11.05;100.00
19672;BME280;9983;51.114;13.788;2023-09-30T22:22:18;100327.22;;;11.06;100.00
19672;BME280;9983;51.114;13.788;2023-09-30T22:27:18;100328.75;;;10.64;100.00
19672;BME280;9983;51.114;13.788;2023-09-30T22:32:19;100336.56;;;10.76;100.00
19672;BME280;9983;51.114;13.788;2023-09-30T22:37:19;100338.19;;;10.69;100.00
19672;BME280;9983;51.114;13.788;2023-09-30T22:42:19;100335.66;;;10.67;100.00
19672;BME280;9983;51.114;13.788;2023-09-30T22:47:19;100345.31;;;10.42;100.00
19672;BME280;9983;51.114;13.788;2023-09-30T22:52:20;100338.56;;;10.38;100.00
19672;BME280;9983;51.114;13.788;2023-09-30T22:57:20;100345.41;;;10.50;100.00
19672;BME280;9983;51.114;13.788;2023-09-30T23:02:20;100339.63;;;10.81;100.00
19672;BME280;9983;51.114;13.788;2023-09-30T23:07:21;100343.00;;;10.47;100.00
19672;BME280;9983;51.114;13.788;2023-09-30T23:12:22;100330.84;;;10.08;100.00
19672;BME280;9983;51.114;13.788;2023-09-30T23:17:23;100343.34;;;10.44;100.00
19672;BME280;9983;51.114;13.788;2023-09-30T23:22:23;100324.66;;;10.52;100.00
19672;BME280;9983;51.114;13.788;2023-09-30T23:27:23;100322.81;;;10.35;100.00
19672;BME280;9983;51.114;13.788;2023-09-30T23:32:24;100315.47;;;10.37;100.00
19672;BME280;9983;51.114;13.788;2023-09-30T23:37:25;100320.19;;;9.98;100.00
19672;BME280;9983;51.114;13.788;2023-09-30T23:42:25;100318.81;;;10.39;100.00
19672;BME280;9983;51.114;13.788;2023-09-30T23:47:25;100324.56;;;10.62;100.00
19672;BME280;9983;51.114;13.788;2023-09-30T23:52:26;100324.72;;;9.98;100.00
19672;BME280;9983;51.114;13.788;2023-09-30T23:57:27;100323.72;;;9.71;100.00
